Time;durP1;ratioP1;P1;durP2;ratioP2;P2;SDS_P1;SDS_P2;PMS_P1;PMS_P2;Temp;Humidity;BMP_temperature;BMP_pressure;BME280_temperature;BME280_humidity;BME280_pressure;Samples;Min_cycle;Max_cycle;Signal;HPM_P1;HPM_P2
2021/04/08 00:01:38;;;;;;;22.48;2.63;;;;;;;;;;4982361;28;20479;-80
2021/04/08 00:04:05;;;;;;;30.75;2.55;;;;;;;;;;4981369;28;20082;-80
2021/04/08 00:06:32;;;;;;;25.85;2.05;;;;;;;;;;4981415;28;20475;-80
2021/04/08 00:08:58;;;;;;;19.00;2.75;;;;;;;;;;4979793;28;20058;-79
2021/04/08 00:11:25;;;;;;;23.88;2.83;;;;;;;;;;4981950;28;20108;-79
2021/04/08 00:13:54;;;;;;;15.50;2.53;;;;;;;;;;4981529;28;20078;-79
2021/04/08 00:16:20;;;;;;;14.15;3.15;;;;;;;;;;4998532;28;20042;-80
2021/04/08 00:18:47;;;;;;;13.27;2.50;;;;;;;;;;4981583;28;20136;-80
2021/04/08 00:21:14;;;;;;;23.95;2.90;;;;;;;;;;4981297;28;20472;-80
2021/04/08 00:23:40;;;;;;;25.52;3.03;;;;;;;;;;4997923;28;20093;-80
2021/04/08 00:26:07;;;;;;;18.20;3.33;;;;;;;;;;4997021;28;20053;-80
2021/04/08 00:28:36;;;;;;;19.05;2.70;;;;;;;;;;4998932;28;20054;-79
2021/04/08 00:31:03;;;;;;;20.30;2.63;;;;;;;;;;4981295;28;20136;-80
2021/04/08 00:33:30;;;;;;;25.50;2.97;;;;;;;;;;4981217;28;20062;-80
2021/04/08 00:35:56;;;;;;;27.35;3.00;;;;;;;;;;4998722;28;20078;-80
2021/04/08 00:38:23;;;;;;;16.23;2.25;;;;;;;;;;4981300;28;20096;-80
2021/04/08 00:40:50;;;;;;;17.75;2.50;;;;;;;;;;4981511;28;20129;-80
2021/04/08 00:43:17;;;;;;;27.20;2.85;;;;;;;;;;4981294;28;20137;-78
2021/04/08 00:45:44;;;;;;;32.25;3.17;;;;;;;;;;4981219;28;20550;-79
2021/04/08 00:48:11;;;;;;;34.47;3.28;;;;;;;;;;4981191;28;20112;-80
2021/04/08 00:50:37;;;;;;;27.17;2.72;;;;;;;;;;4981556;28;20082;-79
2021/04/08 00:53:07;;;;;;;27.90;2.50;;;;;;;;;;4981185;28;20515;-80
2021/04/08 00:55:39;;;;;;;31.50;3.65;;;;;;;;;;4978003;28;20169;-80
2021/04/08 00:58:06;;;;;;;18.13;2.72;;;;;;;;;;4978269;28;20042;-79
2021/04/08 01:00:33;;;;;;;31.98;4.15;;;;;;;;;;4980597;28;20141;-79
2021/04/08 01:03:00;;;;;;;21.92;2.60;;;;;;;;;;4998277;28;20050;-79
2021/04/08 01:05:27;;;;;;;22.60;2.95;;;;;;;;;;4981267;28;20108;-80
2021/04/08 01:07:54;;;;;;;22.65;2.90;;;;;;;;;;4980910;28;20430;-79
2021/04/08 01:10:24;;;;;;;30.10;4.22;;;;;;;;;;4997554;28;20137;-80
2021/04/08 01:12:52;;;;;;;25.75;2.67;;;;;;;;;;4994517;28;20137;-80
2021/04/08 01:15:19;;;;;;;27.83;3.80;;;;;;;;;;4977546;28;20505;-80
2021/04/08 01:17:49;;;;;;;21.95;3.00;;;;;;;;;;4995153;28;20137;-80
2021/04/08 01:20:33;;;;;;;29.73;3.15;;;;;;;;;;4994856;28;20543;-80
2021/04/08 01:23:03;;;;;;;16.43;3.77;;;;;;;;;;4995605;28;20082;-80
2021/04/08 01:25:48;;;;;;;44.10;3.97;;;;;;;;;;4977182;28;20519;-79
2021/04/08 01:28:34;;;;;;;36.67;3.53;;;;;;;;;;4976732;28;20058;-79
2021/04/08 01:31:13;;;;;;;26.45;2.83;;;;;;;;;;4971409;28;20060;-80
2021/04/08 01:33:45;;;;;;;27.67;4.60;;;;;;;;;;4974723;28;20105;-79
2021/04/08 01:36:19;;;;;;;24.75;2.70;;;;;;;;;;4976808;28;20046;-79
2021/04/08 01:38:52;;;;;;;33.10;3.30;;;;;;;;;;4994350;28;20495;-79
2021/04/08 01:41:20;;;;;;;40.55;2.75;;;;;;;;;;4977980;28;20085;-79
2021/04/08 01:43:47;;;;;;;25.15;2.15;;;;;;;;;;4993984;28;20163;-79
2021/04/08 01:46:15;;;;;;;25.50;4.05;;;;;;;;;;4977223;28;20050;-79
2021/04/08 01:48:47;;;;;;;22.85;2.70;;;;;;;;;;4977268;28;20138;-79
2021/04/08 01:51:15;;;;;;;40.15;6.55;;;;;;;;;;4975483;28;20073;-79
2021/04/08 01:53:50;;;;;;;33.33;4.03;;;;;;;;;;4975132;28;20098;-78
2021/04/08 01:56:18;;;;;;;27.63;2.95;;;;;;;;;;4994240;28;20050;-79
2021/04/08 01:58:47;;;;;;;24.60;2.75;;;;;;;;;;4993920;28;20789;-79
2021/04/08 02:01:16;;;;;;;35.03;3.53;;;;;;;;;;4994567;28;20455;-79
2021/04/08 02:03:43;;;;;;;25.88;2.33;;;;;;;;;;4977174;28;20104;-79
2021/04/08 02:06:11;;;;;;;17.58;2.65;;;;;;;;;;4994225;28;20050;-79
2021/04/08 02:08:39;;;;;;;23.85;3.38;;;;;;;;;;4994302;28;20050;-79
2021/04/08 02:11:11;;;;;;;20.77;3.05;;;;;;;;;;4977332;28;20454;-79
2021/04/08 02:13:42;;;;;;;21.75;3.97;;;;;;;;;;4977179;28;20058;-79
2021/04/08 02:16:10;;;;;;;26.63;3.17;;;;;;;;;;4976462;28;20057;-79
2021/04/08 02:18:37;;;;;;;36.22;3.42;;;;;;;;;;4972034;28;20104;-79
2021/04/08 02:21:04;;;;;;;36.40;4.70;;;;;;;;;;4971189;28;20085;-79
2021/04/08 02:23:33;;;;;;;25.48;3.30;;;;;;;;;;4989118;28;20170;-79
2021/04/08 02:26:05;;;;;;;24.55;2.83;;;;;;;;;;4970775;28;20104;-79
2021/04/08 02:28:33;;;;;;;19.70;2.75;;;;;;;;;;4989225;28;20743;-79
2021/04/08 02:31:00;;;;;;;26.48;3.05;;;;;;;;;;4973479;28;20104;-79
2021/04/08 02:33:30;;;;;;;25.00;2.78;;;;;;;;;;4994038;28;20699;-80
2021/04/08 02:35:58;;;;;;;26.50;2.72;;;;;;;;;;4976419;28;20050;-79
2021/04/08 02:38:26;;;;;;;23.90;3.03;;;;;;;;;;4976908;28;20054;-79
2021/04/08 02:40:53;;;;;;;23.77;4.22;;;;;;;;;;4976587;28;20074;-80
2021/04/08 02:43:20;;;;;;;28.67;3.47;;;;;;;;;;4976657;28;20050;-80
2021/04/08 02:45:47;;;;;;;28.23;3.10;;;;;;;;;;4976251;28;20050;-80
2021/04/08 02:48:15;;;;;;;27.50;3.17;;;;;;;;;;4983771;28;20063;-79
2021/04/08 02:50:43;;;;;;;39.88;3.85;;;;;;;;;;4993750;28;20106;-79
2021/04/08 02:53:12;;;;;;;32.92;3.10;;;;;;;;;;4975913;28;20054;-79
2021/04/08 02:56:05;;;;;;;22.27;2.70;;;;;;;;;;4993240;28;20141;-79
2021/04/08 02:58:33;;;;;;;22.73;3.63;;;;;;;;;;4953775;28;20459;-79
2021/04/08 03:01:02;;;;;;;25.92;2.85;;;;;;;;;;4975712;28;20442;-79
2021/04/08 03:03:45;;;;;;;22.90;3.50;;;;;;;;;;4975912;28;20503;-79
2021/04/08 03:06:13;;;;;;;20.90;2.35;;;;;;;;;;4975838;28;20085;-79
2021/04/08 03:08:42;;;;;;;32.30;3.17;;;;;;;;;;4975406;28;20058;-79
2021/04/08 03:11:12;;;;;;;22.02;2.80;;;;;;;;;;4993072;28;20077;-79
2021/04/08 03:13:41;;;;;;;21.73;2.65;;;;;;;;;;4975370;28;20132;-78
2021/04/08 03:16:15;;;;;;;24.10;3.10;;;;;;;;;;4975361;28;20104;-79
2021/04/08 03:18:42;;;;;;;27.70;2.95;;;;;;;;;;4992930;28;20153;-79
2021/04/08 03:21:10;;;;;;;26.55;3.35;;;;;;;;;;4975409;28;20100;-79
2021/04/08 03:23:37;;;;;;;18.40;2.53;;;;;;;;;;4992276;28;20042;-79
2021/04/08 03:26:05;;;;;;;21.35;3.15;;;;;;;;;;4974618;28;20046;-79
2021/04/08 03:28:32;;;;;;;33.08;3.47;;;;;;;;;;4975958;28;20124;-79
2021/04/08 03:31:02;;;;;;;24.70;2.58;;;;;;;;;;4975816;28;20054;-79
2021/04/08 03:33:32;;;;;;;29.10;3.55;;;;;;;;;;4975368;28;20084;-80
2021/04/08 03:36:00;;;;;;;26.92;2.75;;;;;;;;;;4974829;28;20100;-80
2021/04/08 03:38:27;;;;;;;26.52;2.88;;;;;;;;;;4993427;28;20104;-80
2021/04/08 03:40:57;;;;;;;10.57;2.25;;;;;;;;;;4975090;28;20125;-79
2021/04/08 03:43:25;;;;;;;29.98;3.03;;;;;;;;;;4975827;28;20190;-79
2021/04/08 03:45:53;;;;;;;27.73;2.97;;;;;;;;;;4974893;28;20161;-79
2021/04/08 03:48:19;;;;;;;25.48;3.05;;;;;;;;;;4975418;28;20081;-79
2021/04/08 03:50:48;;;;;;;33.90;4.28;;;;;;;;;;4975676;28;20116;-79
2021/04/08 03:53:17;;;;;;;22.23;3.53;;;;;;;;;;4975155;28;20058;-79
2021/04/08 03:55:46;;;;;;;23.13;2.97;;;;;;;;;;4974891;28;20046;-79
2021/04/08 03:58:13;;;;;;;24.20;3.53;;;;;;;;;;4974820;28;20039;-79
2021/04/08 04:00:40;;;;;;;30.08;3.35;;;;;;;;;;4974912;28;20050;-79
2021/04/08 04:03:13;;;;;;;23.98;3.00;;;;;;;;;;4974869;28;20124;-79
2021/04/08 04:05:44;;;;;;;25.38;3.50;;;;;;;;;;4975048;28;20400;-80
2021/04/08 04:08:11;;;;;;;35.25;3.47;;;;;;;;;;4975017;28;20104;-79
2021/04/08 04:10:39;;;;;;;24.77;3.65;;;;;;;;;;4974634;28;20046;-79
2021/04/08 04:13:06;;;;;;;27.55;3.00;;;;;;;;;;4974420;28;20089;-79
2021/04/08 04:15:35;;;;;;;28.60;3.10;;;;;;;;;;4974690;28;20141;-79
2021/04/08 04:18:09;;;;;;;25.08;3.05;;;;;;;;;;4991615;28;20096;-79
2021/04/08 04:20:37;;;;;;;28.48;2.67;;;;;;;;;;4974915;28;20042;-80
2021/04/08 04:23:04;;;;;;;40.38;3.40;;;;;;;;;;4974127;28;20085;-79
2021/04/08 04:25:31;;;;;;;24.73;3.60;;;;;;;;;;4971362;28;20082;-80
2021/04/08 04:27:58;;;;;;;32.08;4.15;;;;;;;;;;4988756;28;20050;-80
2021/04/08 04:30:25;;;;;;;21.70;3.17;;;;;;;;;;4974189;28;20118;-80
2021/04/08 04:32:55;;;;;;;27.60;3.65;;;;;;;;;;4974373;28;20042;-80
2021/04/08 04:35:22;;;;;;;28.65;3.42;;;;;;;;;;4975314;28;20074;-81
2021/04/08 04:37:49;;;;;;;27.67;4.30;;;;;;;;;;4991946;28;20046;-80
2021/04/08 04:40:17;;;;;;;29.15;4.35;;;;;;;;;;4975355;28;20408;-80
2021/04/08 04:42:43;;;;;;;23.33;3.20;;;;;;;;;;4991419;28;20333;-79
2021/04/08 04:45:11;;;;;;;34.15;4.93;;;;;;;;;;4974779;28;20050;-80
2021/04/08 04:47:41;;;;;;;29.77;3.60;;;;;;;;;;4978546;28;20097;-80
2021/04/08 04:50:09;;;;;;;20.55;2.78;;;;;;;;;;4977889;28;20555;-79
2021/04/08 04:52:36;;;;;;;24.15;3.42;;;;;;;;;;4992610;28;20054;-79
2021/04/08 04:55:03;;;;;;;29.25;3.05;;;;;;;;;;4993777;28;20111;-80
2021/04/08 04:57:42;;;;;;;25.77;2.80;;;;;;;;;;4977327;28;20459;-81
2021/04/08 05:00:09;;;;;;;28.67;3.95;;;;;;;;;;4976123;28;20133;-79
2021/04/08 05:02:36;;;;;;;24.27;3.50;;;;;;;;;;4977534;28;20058;-81
2021/04/08 05:05:03;;;;;;;31.40;3.53;;;;;;;;;;4996839;28;20050;-79
2021/04/08 05:07:29;;;;;;;24.77;3.10;;;;;;;;;;5002386;28;20571;-78
2021/04/08 05:09:56;;;;;;;28.00;3.13;;;;;;;;;;4993944;28;20133;-78
2021/04/08 05:12:23;;;;;;;29.98;6.18;;;;;;;;;;4993023;28;20150;-78
2021/04/08 05:14:51;;;;;;;21.52;4.28;;;;;;;;;;4975828;28;20058;-79
2021/04/08 05:17:18;;;;;;;20.40;3.60;;;;;;;;;;4983259;28;20109;-79
2021/04/08 05:19:45;;;;;;;24.88;3.47;;;;;;;;;;4980384;28;20571;-78
2021/04/08 05:22:11;;;;;;;22.67;3.20;;;;;;;;;;4975713;28;20125;-79
2021/04/08 05:24:38;;;;;;;23.42;2.67;;;;;;;;;;4974845;28;20687;-77
2021/04/08 05:27:05;;;;;;;20.17;3.05;;;;;;;;;;4990217;28;20136;-78
2021/04/08 05:29:32;;;;;;;25.92;3.58;;;;;;;;;;4973990;28;20160;-78
2021/04/08 05:31:58;;;;;;;31.50;4.68;;;;;;;;;;4974613;28;20104;-78
2021/04/08 05:34:25;;;;;;;19.45;2.83;;;;;;;;;;4992783;28;20050;-78
2021/04/08 05:36:52;;;;;;;19.75;4.35;;;;;;;;;;4974520;28;20073;-79
2021/04/08 05:39:18;;;;;;;21.77;3.08;;;;;;;;;;4976588;28;20052;-79
2021/04/08 05:41:45;;;;;;;23.63;3.25;;;;;;;;;;4991911;28;20522;-77
2021/04/08 05:44:12;;;;;;;32.38;3.42;;;;;;;;;;4975027;28;20057;-77
2021/04/08 05:46:39;;;;;;;28.60;3.33;;;;;;;;;;4991757;28;20054;-78
2021/04/08 05:49:06;;;;;;;24.73;4.63;;;;;;;;;;4973625;28;20046;-77
2021/04/08 05:51:33;;;;;;;27.27;3.10;;;;;;;;;;4974597;28;20050;-78
2021/04/08 05:54:00;;;;;;;14.80;3.10;;;;;;;;;;4974166;28;20137;-78
2021/04/08 05:56:28;;;;;;;22.98;3.63;;;;;;;;;;4991253;28;20054;-78
2021/04/08 05:58:54;;;;;;;30.67;4.15;;;;;;;;;;4973706;28;20070;-78
2021/04/08 06:01:21;;;;;;;28.30;3.88;;;;;;;;;;4967057;28;20047;-78
2021/04/08 06:03:48;;;;;;;26.35;4.07;;;;;;;;;;4990664;28;20108;-77
2021/04/08 06:06:15;;;;;;;29.45;4.78;;;;;;;;;;4990116;28;20676;-78
2021/04/08 06:08:42;;;;;;;29.45;2.78;;;;;;;;;;4972984;28;20082;-77
2021/04/08 06:11:09;;;;;;;23.55;2.88;;;;;;;;;;4973543;28;20078;-78
2021/04/08 06:13:36;;;;;;;26.70;2.72;;;;;;;;;;4992132;28;20736;-78
2021/04/08 06:16:03;;;;;;;26.23;2.72;;;;;;;;;;4974200;28;20057;-78
2021/04/08 06:18:30;;;;;;;31.27;2.83;;;;;;;;;;4974448;28;20078;-78
2021/04/08 06:20:56;;;;;;;21.35;4.30;;;;;;;;;;4975075;28;20054;-79
2021/04/08 06:23:23;;;;;;;19.08;3.53;;;;;;;;;;4974365;28;20698;-78
2021/04/08 06:25:50;;;;;;;21.17;2.83;;;;;;;;;;4991502;28;20141;-78
2021/04/08 06:28:17;;;;;;;12.50;2.80;;;;;;;;;;4973836;28;20043;-78
2021/04/08 06:30:45;;;;;;;15.20;2.42;;;;;;;;;;4974211;28;20085;-78
2021/04/08 06:33:12;;;;;;;16.92;2.92;;;;;;;;;;4991303;28;20051;-78
2021/04/08 06:35:40;;;;;;;25.30;3.45;;;;;;;;;;4969088;28;20039;-79
2021/04/08 06:38:06;;;;;;;26.17;3.40;;;;;;;;;;4973035;28;20046;-79
2021/04/08 06:40:33;;;;;;;20.95;3.97;;;;;;;;;;4991528;28;20085;-78
2021/04/08 06:43:01;;;;;;;31.35;3.05;;;;;;;;;;4973149;28;20065;-80
2021/04/08 06:45:30;;;;;;;20.45;3.35;;;;;;;;;;4973223;28;20156;-79
2021/04/08 06:48:19;;;;;;;26.15;3.80;;;;;;;;;;4983036;28;20658;-81
2021/04/08 06:50:47;;;;;;;28.88;3.13;;;;;;;;;;4972928;28;20082;-78
2021/04/08 06:53:14;;;;;;;34.22;5.18;;;;;;;;;;4973916;28;20057;-80
2021/04/08 06:55:42;;;;;;;19.58;3.05;;;;;;;;;;4974236;28;20054;-79
2021/04/08 06:58:09;;;;;;;24.08;3.08;;;;;;;;;;4973641;28;20053;-81
2021/04/08 07:00:36;;;;;;;13.32;2.22;;;;;;;;;;4971660;28;20109;-77
2021/04/08 07:03:05;;;;;;;18.40;2.70;;;;;;;;;;4986675;28;20671;-77
2021/04/08 07:05:34;;;;;;;22.65;2.80;;;;;;;;;;4991453;28;20097;-78
2021/04/08 07:08:01;;;;;;;17.13;3.05;;;;;;;;;;4974767;28;20373;-78
2021/04/08 07:10:28;;;;;;;24.95;2.65;;;;;;;;;;4980900;28;20097;-77
2021/04/08 07:12:55;;;;;;;19.73;2.88;;;;;;;;;;4972252;28;20109;-78
2021/04/08 07:15:24;;;;;;;16.38;2.65;;;;;;;;;;4971935;28;20643;-78
2021/04/08 07:17:51;;;;;;;17.77;2.17;;;;;;;;;;4991317;28;20078;-79
2021/04/08 07:20:18;;;;;;;21.95;3.35;;;;;;;;;;4977094;28;20201;-77
2021/04/08 07:22:45;;;;;;;21.48;2.88;;;;;;;;;;4991088;28;20373;-77
2021/04/08 07:25:15;;;;;;;22.52;3.20;;;;;;;;;;4974121;28;20074;-79
2021/04/08 07:27:42;;;;;;;16.80;3.55;;;;;;;;;;4973002;28;20081;-78
2021/04/08 07:30:11;;;;;;;24.00;2.90;;;;;;;;;;4973638;28;20576;-78
2021/04/08 07:32:41;;;;;;;22.17;3.15;;;;;;;;;;4972845;28;20057;-77
2021/04/08 07:35:19;;;;;;;9.75;2.05;;;;;;;;;;4974509;28;20057;-78
2021/04/08 07:37:56;;;;;;;19.80;2.80;;;;;;;;;;4969970;28;20142;-77
2021/04/08 07:40:25;;;;;;;14.75;3.58;;;;;;;;;;4963064;28;20062;-79
2021/04/08 07:42:52;;;;;;;16.88;2.67;;;;;;;;;;4989057;28;20566;-78
2021/04/08 07:45:33;;;;;;;16.95;3.05;;;;;;;;;;4971552;28;20042;-78
2021/04/08 07:48:03;;;;;;;15.55;2.05;;;;;;;;;;4990041;28;20250;-80
2021/04/08 07:50:31;;;;;;;17.83;2.58;;;;;;;;;;4990003;28;20161;-80
2021/04/08 07:52:58;;;;;;;15.57;2.50;;;;;;;;;;5005447;28;20074;-81
2021/04/08 07:55:27;;;;;;;19.25;2.10;;;;;;;;;;4990853;28;20069;-81
2021/04/08 07:58:03;;;;;;;15.52;1.98;;;;;;;;;;4986717;28;20515;-80
2021/04/08 08:00:29;;;;;;;;;;;;;;;;;;4973365;28;20376;-80
2021/04/08 08:02:58;;;;;;;15.20;2.88;;;;;;;;;;4990794;28;19975;-80
2021/04/08 08:05:26;;;;;;;16.83;2.72;;;;;;;;;;4972988;28;20043;-80
2021/04/08 08:07:54;;;;;;;14.82;2.30;;;;;;;;;;4972483;28;20133;-80
2021/04/08 08:10:26;;;;;;;18.20;2.58;;;;;;;;;;4984508;28;20479;-80
2021/04/08 08:12:53;;;;;;;19.00;2.30;;;;;;;;;;4971311;28;20066;-80
2021/04/08 08:15:25;;;;;;;18.48;1.98;;;;;;;;;;4970904;28;20060;-80
2021/04/08 08:17:53;;;;;;;14.73;2.05;;;;;;;;;;4981849;28;20081;-81
2021/04/08 08:20:22;;;;;;;22.15;3.53;;;;;;;;;;4991388;28;20510;-81
2021/04/08 08:22:49;;;;;;;11.75;2.03;;;;;;;;;;4994722;28;20458;-80
2021/04/08 08:25:22;;;;;;;21.77;2.53;;;;;;;;;;4989563;28;20050;-81
2021/04/08 08:27:50;;;;;;;17.33;2.38;;;;;;;;;;4977198;28;20746;-81
2021/04/08 08:30:22;;;;;;;5.93;1.70;;;;;;;;;;4976796;28;20058;-81
2021/04/08 08:33:04;;;;;;;11.50;2.25;;;;;;;;;;4994012;28;20114;-82
2021/04/08 08:35:31;;;;;;;12.32;2.40;;;;;;;;;;4975390;28;20065;-81
2021/04/08 08:38:05;;;;;;;14.00;2.30;;;;;;;;;;4973690;28;20117;-81
2021/04/08 08:40:32;;;;;;;12.60;2.38;;;;;;;;;;4974025;28;20109;-81
2021/04/08 08:42:59;;;;;;;14.55;2.13;;;;;;;;;;4974079;28;20157;-81
2021/04/08 08:45:26;;;;;;;14.02;1.90;;;;;;;;;;4972182;28;20051;-81
2021/04/08 08:47:53;;;;;;;11.35;2.10;;;;;;;;;;4976621;28;20074;-81
2021/04/08 08:50:21;;;;;;;12.30;2.25;;;;;;;;;;4989592;28;20062;-81
2021/04/08 08:52:50;;;;;;;9.77;2.35;;;;;;;;;;4989701;28;20097;-82
2021/04/08 08:55:18;;;;;;;7.25;1.75;;;;;;;;;;4983812;28;20411;-82
2021/04/08 08:57:55;;;;;;;14.70;2.53;;;;;;;;;;4976772;28;20439;-82
2021/04/08 09:00:23;;;;;;;15.23;3.35;;;;;;;;;;4994354;28;20054;-81
2021/04/08 09:02:50;;;;;;;11.93;2.85;;;;;;;;;;4994379;28;20717;-81
2021/04/08 09:05:19;;;;;;;7.35;1.88;;;;;;;;;;4994681;28;20050;-82
2021/04/08 09:07:50;;;;;;;8.68;1.83;;;;;;;;;;4961020;28;20153;-82
2021/04/08 09:10:39;;;;;;;11.98;2.13;;;;;;;;;;4973911;28;20753;-83
2021/04/08 09:13:06;;;;;;;11.43;2.65;;;;;;;;;;4972174;28;20403;-82
2021/04/08 09:15:35;;;;;;;12.35;1.95;;;;;;;;;;4973813;28;20121;-82
2021/04/08 09:18:06;;;;;;;10.98;1.90;;;;;;;;;;4973972;28;20089;-82
2021/04/08 09:20:33;;;;;;;15.25;2.45;;;;;;;;;;4979951;28;20681;-81
2021/04/08 09:23:04;;;;;;;12.93;2.10;;;;;;;;;;4993985;28;20058;-81
2021/04/08 09:25:52;;;;;;;9.88;2.35;;;;;;;;;;4993311;28;20053;-81
2021/04/08 09:28:19;;;;;;;16.17;3.45;;;;;;;;;;4985668;28;20058;-81
2021/04/08 09:31:03;;;;;;;13.95;2.08;;;;;;;;;;4976151;28;20112;-81
2021/04/08 09:33:56;;;;;;;12.35;1.70;;;;;;;;;;4975457;28;20666;-81
2021/04/08 09:36:24;;;;;;;10.73;2.22;;;;;;;;;;4993151;28;20051;-81
2021/04/08 09:38:52;;;;;;;9.10;2.17;;;;;;;;;;4973570;28;20042;-81
2021/04/08 09:41:19;;;;;;;12.07;2.17;;;;;;;;;;4970167;28;20073;-80
2021/04/08 09:43:47;;;;;;;11.63;2.58;;;;;;;;;;4991839;28;20074;-78
2021/04/08 09:46:14;;;;;;;7.53;1.63;;;;;;;;;;4975022;28;20868;-79
2021/04/08 09:48:45;;;;;;;13.05;2.20;;;;;;;;;;4992206;28;20078;-80
2021/04/08 09:51:24;;;;;;;6.85;1.30;;;;;;;;;;4991917;28;20133;-82
2021/04/08 09:53:54;;;;;;;6.85;1.83;;;;;;;;;;4989776;28;20186;-80
2021/04/08 09:56:40;;;;;;;12.77;2.00;;;;;;;;;;4991978;28;20038;-81
2021/04/08 09:59:07;;;;;;;12.90;1.70;;;;;;;;;;4991656;28;20058;-80
2021/04/08 10:01:34;;;;;;;8.18;1.90;;;;;;;;;;4991722;28;20150;-78
2021/04/08 10:04:11;;;;;;;10.27;1.65;;;;;;;;;;4991527;28;20065;-83
2021/04/08 10:06:38;;;;;;;8.60;1.40;;;;;;;;;;4990866;28;20061;-81
2021/04/08 10:09:09;;;;;;;6.43;1.30;;;;;;;;;;4990302;28;20093;-81
2021/04/08 10:11:36;;;;;;;9.18;1.83;;;;;;;;;;4973327;28;20050;-82
2021/04/08 10:14:35;;;;;;;10.27;1.75;;;;;;;;;;4992417;28;20073;-81
2021/04/08 10:17:14;;;;;;;10.13;1.67;;;;;;;;;;4924907;28;20714;-83
2021/04/08 10:19:42;;;;;;;6.88;1.52;;;;;;;;;;4981753;28;20074;-80
2021/04/08 10:22:10;;;;;;;16.85;1.90;;;;;;;;;;4978871;28;20043;-79
2021/04/08 10:24:40;;;;;;;7.47;1.85;;;;;;;;;;5001035;28;20073;-79
2021/04/08 10:27:32;;;;;;;14.10;2.22;;;;;;;;;;4996016;28;20566;-80
2021/04/08 10:30:00;;;;;;;10.07;1.20;;;;;;;;;;4990389;28;20070;-82
2021/04/08 10:32:31;;;;;;;7.75;1.23;;;;;;;;;;4976498;28;20061;-82
2021/04/08 10:34:58;;;;;;;6.53;1.45;;;;;;;;;;4976620;28;20074;-84
2021/04/08 10:37:25;;;;;;;7.30;1.83;;;;;;;;;;4977690;28;20440;-82
2021/04/08 10:39:53;;;;;;;10.20;1.48;;;;;;;;;;4977579;28;20754;-81
2021/04/08 10:42:22;;;;;;;7.72;1.45;;;;;;;;;;4994207;28;20463;-83
2021/04/08 10:44:50;;;;;;;9.43;1.17;;;;;;;;;;4976759;28;20065;-84
2021/04/08 10:47:19;;;;;;;15.18;1.50;;;;;;;;;;4972166;28;20058;-84
2021/04/08 10:49:56;;;;;;;8.32;1.80;;;;;;;;;;4973298;23;20054;-83
2021/04/08 10:52:25;;;;;;;10.93;1.77;;;;;;;;;;4959574;28;20055;-80
2021/04/08 10:55:20;;;;;;;11.88;1.50;;;;;;;;;;4929810;29;20139;-80
2021/04/08 10:58:15;;;;;;;4.78;0.77;;;;;;;;;;4945710;29;20520;-75
2021/04/08 11:00:44;;;;;;;6.90;1.98;;;;;;;;;;4935654;29;20597;-81
2021/04/08 11:06:38;;;;;;;;;;;;;;;;;;4985099;28;20046;-74
2021/04/08 11:09:05;;;;;;;7.97;1.45;;;;;;;;;;4982871;28;19957;-77
2021/04/08 11:11:32;;;;;;;8.68;1.65;;;;;;;;;;4973052;28;20101;-76
2021/04/08 11:13:59;;;;;;;11.65;1.73;;;;;;;;;;4990300;28;20467;-77
2021/04/08 11:16:27;;;;;;;11.05;1.88;;;;;;;;;;4989588;28;20137;-77
2021/04/08 11:18:56;;;;;;;7.47;1.70;;;;;;;;;;4973326;28;20462;-76
2021/04/08 11:21:26;;;;;;;8.18;1.77;;;;;;;;;;4973153;28;20050;-77
2021/04/08 11:23:54;;;;;;;7.07;3.78;;;;;;;;;;4972851;28;20058;-77
2021/04/08 11:26:22;;;;;;;12.40;1.60;;;;;;;;;;4989882;28;20136;-77
2021/04/08 11:28:57;;;;;;;8.80;1.48;;;;;;;;;;4970157;28;20133;-77
2021/04/08 11:31:26;;;;;;;19.95;1.75;;;;;;;;;;4971446;28;20058;-77
2021/04/08 11:34:00;;;;;;;11.07;1.65;;;;;;;;;;4970960;28;20054;-77
2021/04/08 11:36:32;;;;;;;13.40;1.58;;;;;;;;;;4972645;28;20447;-78
2021/04/08 11:39:10;;;;;;;10.70;1.58;;;;;;;;;;4986780;28;20047;-77
2021/04/08 11:41:38;;;;;;;12.68;1.33;;;;;;;;;;4985705;28;20050;-78
2021/04/08 11:44:05;;;;;;;13.57;1.92;;;;;;;;;;4986589;28;20047;-79
2021/04/08 11:46:35;;;;;;;8.60;1.48;;;;;;;;;;4989974;28;20077;-78
2021/04/08 11:49:03;;;;;;;7.40;1.17;;;;;;;;;;4990486;28;20057;-78
2021/04/08 11:51:31;;;;;;;4.07;0.90;;;;;;;;;;4990573;28;20141;-78
2021/04/08 11:54:08;;;;;;;6.00;1.50;;;;;;;;;;4989781;28;20073;-78
2021/04/08 11:56:35;;;;;;;5.93;1.42;;;;;;;;;;4968364;28;20357;-78
2021/04/08 11:59:21;;;;;;;6.60;1.42;;;;;;;;;;4970535;28;20465;-78
2021/04/08 12:01:50;;;;;;;9.82;1.45;;;;;;;;;;4969882;28;20412;-78
2021/04/08 12:04:25;;;;;;;8.02;1.30;;;;;;;;;;4973150;28;20042;-78
2021/04/08 12:06:53;;;;;;;11.88;1.85;;;;;;;;;;4973610;28;20054;-78
2021/04/08 12:09:36;;;;;;;14.45;1.98;;;;;;;;;;4971034;28;20050;-78
2021/04/08 12:12:03;;;;;;;9.32;1.65;;;;;;;;;;4973899;28;20108;-79
2021/04/08 12:14:30;;;;;;;19.80;1.60;;;;;;;;;;4972903;28;20163;-78
2021/04/08 12:17:07;;;;;;;9.63;1.95;;;;;;;;;;4972107;28;20047;-78
2021/04/08 12:19:35;;;;;;;9.48;1.88;;;;;;;;;;4972455;28;20055;-78
2021/04/08 12:22:04;;;;;;;9.82;1.95;;;;;;;;;;4989338;28;20125;-78
2021/04/08 12:24:31;;;;;;;9.25;1.42;;;;;;;;;;4970942;28;20129;-78
2021/04/08 12:26:59;;;;;;;10.27;1.52;;;;;;;;;;4989705;28;20054;-78
2021/04/08 12:29:26;;;;;;;6.28;1.25;;;;;;;;;;4971858;28;20166;-78
2021/04/08 12:31:54;;;;;;;10.38;2.13;;;;;;;;;;4989955;28;20499;-79
2021/04/08 12:34:24;;;;;;;13.73;2.00;;;;;;;;;;4989532;28;20087;-78
2021/04/08 12:36:51;;;;;;;6.20;1.30;;;;;;;;;;4989219;28;20057;-78
2021/04/08 12:39:18;;;;;;;6.35;1.30;;;;;;;;;;4988967;28;20129;-78
2021/04/08 12:41:45;;;;;;;12.63;1.20;;;;;;;;;;4986901;28;20059;-78
2021/04/08 12:44:11;;;;;;;4.85;1.38;;;;;;;;;;4968781;28;20059;-78
2021/04/08 12:46:39;;;;;;;11.43;1.50;;;;;;;;;;4969885;28;20059;-78
2021/04/08 12:49:06;;;;;;;8.45;1.67;;;;;;;;;;4970793;28;20133;-78
2021/04/08 12:51:33;;;;;;;10.27;1.38;;;;;;;;;;4969357;28;20145;-78
2021/04/08 12:54:00;;;;;;;4.85;1.15;;;;;;;;;;4987955;28;20539;-78
2021/04/08 12:56:27;;;;;;;7.53;1.50;;;;;;;;;;4973133;28;20088;-78
2021/04/08 12:58:54;;;;;;;14.05;2.40;;;;;;;;;;4973281;28;20109;-77
2021/04/08 13:01:21;;;;;;;10.50;2.10;;;;;;;;;;4990784;28;20054;-78
2021/04/08 13:03:48;;;;;;;12.30;1.55;;;;;;;;;;4972896;28;20562;-77
2021/04/08 13:06:16;;;;;;;16.20;1.98;;;;;;;;;;4971097;28;20142;-78
2021/04/08 13:08:43;;;;;;;11.18;1.90;;;;;;;;;;4973649;28;20081;-78
2021/04/08 13:11:10;;;;;;;7.97;1.88;;;;;;;;;;4972910;28;20166;-78
2021/04/08 13:13:36;;;;;;;8.27;1.83;;;;;;;;;;4989124;28;20483;-78
2021/04/08 13:16:03;;;;;;;8.10;2.20;;;;;;;;;;4975542;28;20069;-78
2021/04/08 13:18:30;;;;;;;8.30;2.28;;;;;;;;;;4975572;28;20053;-77
2021/04/08 13:20:57;;;;;;;13.60;3.05;;;;;;;;;;4961072;28;20404;-78
2021/04/08 13:23:24;;;;;;;9.32;2.20;;;;;;;;;;4972515;28;20047;-77
2021/04/08 13:25:50;;;;;;;8.02;1.70;;;;;;;;;;4973318;28;20134;-78
2021/04/08 13:28:17;;;;;;;11.68;2.03;;;;;;;;;;4972832;28;20053;-78
2021/04/08 13:30:44;;;;;;;9.60;2.03;;;;;;;;;;4976037;28;20126;-78
2021/04/08 13:33:11;;;;;;;7.28;2.17;;;;;;;;;;4991610;28;20136;-78
2021/04/08 13:35:38;;;;;;;7.03;1.90;;;;;;;;;;4992713;28;20161;-78
2021/04/08 13:38:04;;;;;;;9.13;1.63;;;;;;;;;;4992397;28;20090;-78
2021/04/08 13:40:31;;;;;;;5.25;1.20;;;;;;;;;;4984084;28;20054;-78
2021/04/08 13:42:58;;;;;;;4.00;1.48;;;;;;;;;;4969261;28;20050;-79
2021/04/08 13:45:26;;;;;;;6.47;1.38;;;;;;;;;;4974818;28;20077;-79
2021/04/08 13:47:53;;;;;;;3.70;1.08;;;;;;;;;;4991642;28;20577;-76
2021/04/08 13:50:20;;;;;;;5.55;1.08;;;;;;;;;;4991035;28;20093;-78
2021/04/08 13:52:47;;;;;;;9.55;1.92;;;;;;;;;;4993452;28;20467;-77
2021/04/08 13:55:16;;;;;;;5.85;1.30;;;;;;;;;;4993572;28;20063;-79
2021/04/08 13:57:44;;;;;;;7.47;1.70;;;;;;;;;;4989096;28;20065;-79
2021/04/08 14:00:16;;;;;;;12.40;2.35;;;;;;;;;;4973731;28;20061;-79
2021/04/08 14:02:43;;;;;;;7.72;1.80;;;;;;;;;;4972358;28;20116;-79
2021/04/08 14:05:11;;;;;;;4.97;1.60;;;;;;;;;;4971621;28;20078;-77
2021/04/08 14:07:38;;;;;;;7.20;1.98;;;;;;;;;;5004635;28;20046;-79
2021/04/08 14:10:05;;;;;;;3.33;1.63;;;;;;;;;;5004049;28;20503;-81
2021/04/08 14:12:33;;;;;;;6.28;1.83;;;;;;;;;;4975029;28;20050;-79
2021/04/08 14:14:59;;;;;;;7.95;1.98;;;;;;;;;;4975202;28;20069;-79
2021/04/08 14:17:26;;;;;;;4.65;1.60;;;;;;;;;;4973215;28;20086;-80
2021/04/08 14:19:54;;;;;;;6.70;2.38;;;;;;;;;;4970219;28;20825;-79
2021/04/08 14:22:22;;;;;;;6.82;1.73;;;;;;;;;;4968754;28;20053;-78
2021/04/08 14:24:49;;;;;;;14.77;1.88;;;;;;;;;;4987914;28;20049;-78
2021/04/08 14:27:18;;;;;;;4.88;1.50;;;;;;;;;;4997516;28;20086;-78
2021/04/08 14:29:45;;;;;;;3.08;1.10;;;;;;;;;;4972879;28;20086;-78
2021/04/08 14:32:12;;;;;;;8.35;1.10;;;;;;;;;;5006421;28;20097;-78
2021/04/08 14:34:40;;;;;;;7.28;1.42;;;;;;;;;;4973225;28;20050;-78
2021/04/08 14:37:08;;;;;;;4.93;1.00;;;;;;;;;;4968426;28;20153;-78
2021/04/08 14:39:34;;;;;;;12.85;1.83;;;;;;;;;;4988305;28;20129;-78
2021/04/08 14:42:03;;;;;;;8.90;1.27;;;;;;;;;;4969906;28;20097;-78
2021/04/08 14:44:30;;;;;;;12.77;1.50;;;;;;;;;;4974356;28;20534;-78
2021/04/08 14:46:56;;;;;;;11.45;1.63;;;;;;;;;;4990740;28;20141;-78
2021/04/08 14:49:24;;;;;;;6.28;1.25;;;;;;;;;;4973299;28;20058;-78